Time;durP1;ratioP1;P1;durP2;ratioP2;P2;SDS_P1;SDS_P2;PMS_P1;PMS_P2;Temp;Humidity;BMP_temperature;BMP_pressure;BME280_temperature;BME280_humidity;BME280_pressure;Samples;Min_cycle;Max_cycle;Signal;HPM_P1;HPM_P2
2021/04/20 00:00:09;;;;;;;25.83;15.70;;;10.50;1.00;;;;;;5049875;28;20466;-80
2021/04/20 00:02:36;;;;;;;18.80;13.73;;;10.50;1.00;;;;;;5049935;28;20465;-80
2021/04/20 00:05:06;;;;;;;23.30;17.17;;;10.60;1.00;;;;;;5051554;28;20510;-80
2021/04/20 00:07:35;;;;;;;21.47;14.70;;;10.60;99.90;;;;;;5059764;28;20461;-78
2021/04/20 00:10:05;;;;;;;18.27;13.37;;;10.60;1.00;;;;;;5044028;28;20465;-78
2021/04/20 00:12:33;;;;;;;21.53;15.20;;;10.60;1.00;;;;;;5053810;28;20835;-77
2021/04/20 00:15:00;;;;;;;20.03;15.10;;;10.60;1.00;;;;;;5056484;28;20599;-79
2021/04/20 00:17:27;;;;;;;18.53;13.70;;;10.60;1.00;;;;;;5061162;28;20471;-78
2021/04/20 00:19:54;;;;;;;20.50;15.43;;;10.60;1.00;;;;;;5045939;28;20473;-78
2021/04/20 00:22:21;;;;;;;18.30;13.60;;;10.60;1.00;;;;;;5053612;28;20467;-78
2021/04/20 00:24:49;;;;;;;20.80;14.37;;;10.60;1.00;;;;;;5057173;28;20487;-78
2021/04/20 00:27:16;;;;;;;20.83;14.87;;;10.60;1.00;;;;;;5057498;28;20611;-80
2021/04/20 00:29:44;;;;;;;21.63;14.90;;;10.60;99.90;;;;;;5056163;28;20879;-78
2021/04/20 00:32:11;;;;;;;19.03;13.73;;;10.60;99.90;;;;;;5055756;28;20467;-77
2021/04/20 00:34:38;;;;;;;20.83;14.20;;;10.60;99.90;;;;;;5055785;28;20502;-79
2021/04/20 00:37:05;;;;;;;18.00;13.70;;;10.60;99.90;;;;;;5047434;28;20476;-78
2021/04/20 00:39:32;;;;;;;19.60;14.20;;;10.50;99.90;;;;;;5054959;28;20465;-78
2021/04/20 00:42:02;;;;;;;20.30;14.50;;;10.50;99.90;;;;;;5044742;28;20465;-79
2021/04/20 00:44:31;;;;;;;21.23;14.97;;;10.50;99.90;;;;;;5046277;28;20488;-79
2021/04/20 00:46:58;;;;;;;20.67;13.70;;;10.80;99.90;;;;;;5054168;28;20458;-78
2021/04/20 00:49:26;;;;;;;17.70;13.17;;;10.50;99.90;;;;;;5050023;28;20467;-79
2021/04/20 00:51:54;;;;;;;18.77;13.57;;;10.50;99.90;;;;;;5058627;28;20478;-78
2021/04/20 00:54:21;;;;;;;29.27;14.73;;;10.40;99.90;;;;;;5045261;28;20489;-78
2021/04/20 00:56:48;;;;;;;17.93;13.43;;;10.30;99.90;;;;;;5051859;28;20509;-79
2021/04/20 00:59:16;;;;;;;17.37;13.33;;;10.30;99.90;;;;;;5060699;28;20465;-78
2021/04/20 01:01:44;;;;;;;18.47;14.07;;;10.40;99.90;;;;;;5059214;28;20467;-77
2021/04/20 01:04:13;;;;;;;19.60;13.63;;;10.30;99.90;;;;;;5052746;28;20503;-79
2021/04/20 01:06:44;;;;;;;17.13;13.50;;;10.30;99.90;;;;;;5043669;28;20456;-78
2021/04/20 01:09:12;;;;;;;20.10;13.67;;;10.20;99.90;;;;;;5054844;28;20464;-78
2021/04/20 01:11:41;;;;;;;19.20;14.00;;;10.20;99.90;;;;;;5048963;28;20556;-78
2021/04/20 01:14:09;;;;;;;17.70;15.00;;;10.20;99.90;;;;;;5052577;28;20494;-78
2021/04/20 01:16:38;;;;;;;22.10;14.77;;;10.10;99.90;;;;;;5053316;28;20488;-78
2021/04/20 01:19:08;;;;;;;18.97;14.60;;;10.10;99.90;;;;;;5056864;28;20833;-80
2021/04/20 01:21:37;;;;;;;18.53;14.40;;;10.10;67.00;;;;;;5048720;28;20466;-78
2021/04/20 01:24:18;;;;;;;19.77;14.20;;;10.10;53.70;;;;;;5059667;28;20882;-79
2021/04/20 01:26:47;;;;;;;19.10;13.97;;;10.00;14.40;;;;;;5053112;28;20460;-79
2021/04/20 01:29:15;;;;;;;20.20;14.83;;;10.00;35.10;;;;;;5060039;28;20561;-78
2021/04/20 01:31:44;;;;;;;20.10;14.60;;;9.90;14.20;;;;;;5052458;28;20465;-76
2021/04/20 01:34:12;;;;;;;19.47;13.40;;;9.90;1.00;;;;;;5054609;28;20494;-78
2021/04/20 01:36:40;;;;;;;19.43;14.00;;;9.90;9.70;;;;;;5056699;28;20485;-78
2021/04/20 01:39:10;;;;;;;19.43;13.20;;;9.80;1.00;;;;;;5055879;28;20460;-79
2021/04/20 01:41:39;;;;;;;21.70;14.27;;;10.00;1.00;;;;;;5058252;28;20467;-78
2021/04/20 01:44:07;;;;;;;22.53;13.43;;;9.80;26.00;;;;;;5050427;28;20488;-79
2021/04/20 01:46:35;;;;;;;25.00;14.40;;;9.80;99.90;;;;;;5057898;28;20454;-78
2021/04/20 01:49:03;;;;;;;20.67;14.73;;;9.80;99.90;;;;;;5050657;28;20475;-78
2021/04/20 01:51:30;;;;;;;21.57;14.30;;;9.80;99.90;;;;;;5057977;28;20470;-79
2021/04/20 01:53:58;;;;;;;21.90;14.40;;;9.70;99.90;;;;;;5053690;28;20483;-79
2021/04/20 01:56:27;;;;;;;18.30;14.30;;;9.70;99.90;;;;;;5049486;28;20489;-78
2021/04/20 01:58:55;;;;;;;22.13;15.20;;;9.70;1.00;;;;;;5048518;28;20486;-80
2021/04/20 02:01:24;;;;;;;21.63;15.33;;;9.70;1.00;;;;;;5050358;28;20515;-80
2021/04/20 02:03:53;;;;;;;24.30;16.23;;;9.70;1.00;;;;;;5050392;28;20490;-78
2021/04/20 02:06:22;;;;;;;21.53;14.90;;;9.70;1.00;;;;;;5043043;28;20467;-78
2021/04/20 02:08:50;;;;;;;23.83;13.97;;;9.60;1.00;;;;;;5048414;28;21039;-79
2021/04/20 02:11:18;;;;;;;19.20;14.30;;;9.60;1.00;;;;;;5051012;28;21048;-78
2021/04/20 02:13:46;;;;;;;23.17;16.60;;;9.50;1.00;;;;;;5053084;28;20524;-77
2021/04/20 02:16:15;;;;;;;19.53;14.67;;;9.50;1.00;;;;;;5047073;28;20600;-77
2021/04/20 02:18:44;;;;;;;22.10;14.43;;;9.50;1.00;;;;;;5047263;28;20471;-78
2021/04/20 02:21:13;;;;;;;20.27;15.30;;;9.50;1.00;;;;;;5049189;28;20464;-79
2021/04/20 02:23:41;;;;;;;19.60;14.77;;;9.40;1.00;;;;;;5056499;28;20495;-78
2021/04/20 02:26:11;;;;;;;23.67;15.10;;;9.40;1.00;;;;;;5051760;28;20928;-79
2021/04/20 02:28:39;;;;;;;24.00;14.93;;;9.40;1.00;;;;;;5052829;28;20474;-78
2021/04/20 02:31:08;;;;;;;21.57;14.83;;;9.30;1.00;;;;;;5052088;28;20461;-77
2021/04/20 02:33:37;;;;;;;22.60;15.30;;;9.30;1.00;;;;;;5056723;28;20869;-76
2021/04/20 02:36:06;;;;;;;24.00;15.77;;;9.60;1.00;;;;;;5050201;28;20516;-78
2021/04/20 02:38:34;;;;;;;20.10;14.37;;;9.40;1.00;;;;;;5056515;28;20502;-77
2021/04/20 02:41:04;;;;;;;17.17;14.17;;;9.30;1.00;;;;;;5056176;28;20483;-77
2021/04/20 02:43:33;;;;;;;23.40;16.07;;;9.20;1.00;;;;;;5059287;28;20630;-78
2021/04/20 02:46:02;;;;;;;26.60;16.63;;;9.20;1.00;;;;;;5049668;28;20462;-79
2021/04/20 02:48:30;;;;;;;22.53;15.20;;;9.20;1.00;;;;;;5056115;28;20554;-77
2021/04/20 02:51:00;;;;;;;21.10;15.70;;;9.10;1.00;;;;;;5055805;28;20508;-79
2021/04/20 02:53:29;;;;;;;23.07;16.13;;;9.30;1.00;;;;;;5043055;28;20455;-77
2021/04/20 02:55:56;;;;;;;27.20;16.43;;;9.10;1.00;;;;;;5042709;28;20801;-78
2021/04/20 02:58:26;;;;;;;21.10;15.70;;;9.10;1.00;;;;;;5059037;28;20549;-77
2021/04/20 03:01:00;;;;;;;22.07;15.40;;;9.00;1.00;;;;;;5050851;28;21001;-79
2021/04/20 03:03:29;;;;;;;21.37;16.63;;;9.00;1.00;;;;;;5052224;28;20493;-78
2021/04/20 03:06:01;;;;;;;22.50;15.57;;;9.00;1.00;;;;;;5051859;28;20461;-78
2021/04/20 03:08:28;;;;;;;26.27;16.30;;;9.00;1.00;;;;;;5050966;28;20465;-78
2021/04/20 03:11:03;;;;;;;24.77;16.63;;;9.00;1.00;;;;;;5042327;28;20482;-79
2021/04/20 03:13:32;;;;;;;25.70;14.57;;;8.90;1.00;;;;;;5053258;28;20473;-78
2021/04/20 03:16:00;;;;;;;18.80;14.17;;;8.90;1.00;;;;;;5055196;28;20474;-78
2021/04/20 03:18:27;;;;;;;20.90;14.80;;;8.80;1.00;;;;;;5054905;28;20478;-79
2021/04/20 03:20:54;;;;;;;22.20;15.37;;;8.80;1.00;;;;;;5058465;28;21452;-77
2021/04/20 03:23:23;;;;;;;20.43;15.10;;;8.80;1.00;;;;;;5063794;28;20508;-75
2021/04/20 03:25:50;;;;;;;23.50;17.27;;;8.80;1.00;;;;;;5050800;28;20466;-79
2021/04/20 03:28:17;;;;;;;23.77;16.87;;;8.80;1.00;;;;;;5062403;28;20462;-79
2021/04/20 03:30:45;;;;;;;20.00;14.60;;;8.70;1.00;;;;;;5048796;28;20467;-76
2021/04/20 03:33:19;;;;;;;29.00;17.70;;;8.70;1.00;;;;;;5058055;28;20991;-77
2021/04/20 03:35:52;;;;;;;25.50;15.93;;;8.70;1.00;;;;;;5058379;28;20465;-77
2021/04/20 03:38:27;;;;;;;23.97;15.40;;;8.70;1.00;;;;;;5051319;28;21024;-76
2021/04/20 03:40:59;;;;;;;27.50;16.13;;;8.90;1.00;;;;;;5056156;28;20466;-77
2021/04/20 03:43:29;;;;;;;25.00;16.23;;;8.70;1.00;;;;;;5049723;28;20523;-77
2021/04/20 03:46:01;;;;;;;22.77;16.00;;;8.60;1.00;;;;;;5063832;28;20528;-79
2021/04/20 03:48:34;;;;;;;23.00;16.43;;;8.60;31.80;;;;;;5059633;28;21321;-77
2021/04/20 03:51:06;;;;;;;24.60;15.83;;;8.60;24.50;;;;;;5059435;28;20464;-76
2021/04/20 03:53:36;;;;;;;30.83;18.40;;;8.60;15.10;;;;;;5054823;28;20489;-76
2021/04/20 03:56:05;;;;;;;23.60;16.37;;;8.40;99.90;;;;;;5052195;28;20471;-78
2021/04/20 03:58:33;;;;;;;27.97;18.17;;;8.40;99.90;;;;;;5049332;28;20490;-79
2021/04/20 04:01:03;;;;;;;35.95;22.10;;;8.50;99.90;;;;;;5045022;28;20470;-76
2021/04/20 04:03:31;;;;;;;57.60;27.10;;;8.60;99.90;;;;;;5060803;28;20205;-78
2021/04/20 04:06:00;;;;;;;59.53;28.03;;;8.50;99.90;;;;;;5044272;28;20570;-75
2021/04/20 04:08:29;;;;;;;48.00;25.23;;;8.30;42.80;;;;;;5046593;28;20670;-74
2021/04/20 04:11:01;;;;;;;30.00;17.83;;;8.40;99.90;;;;;;5056830;28;20466;-74
2021/04/20 04:13:31;;;;;;;26.77;16.40;;;8.40;99.90;;;;;;5045834;28;20467;-72
2021/04/20 04:16:00;;;;;;;21.00;15.00;;;8.50;99.90;;;;;;5060171;28;20470;-76
2021/04/20 04:18:30;;;;;;;22.90;16.50;;;8.50;1.00;;;;;;5044120;28;20487;-77
2021/04/20 04:21:00;;;;;;;20.77;16.53;;;8.60;1.00;;;;;;5054530;28;20462;-78
2021/04/20 04:23:36;;;;;;;23.77;17.03;;;8.60;1.00;;;;;;5053133;28;20467;-77
2021/04/20 04:26:09;;;;;;;25.23;15.40;;;8.50;99.90;;;;;;5053146;28;20484;-78
2021/04/20 04:28:38;;;;;;;19.07;14.30;;;8.70;1.00;;;;;;5046909;28;20207;-75
2021/04/20 04:31:07;;;;;;;22.07;16.10;;;8.30;1.00;;;;;;5059826;28;20462;-77
2021/04/20 04:33:35;;;;;;;17.20;13.03;;;8.40;1.00;;;;;;5054522;28;21211;-78
2021/04/20 04:36:04;;;;;;;19.60;14.37;;;8.40;1.00;;;;;;5054046;28;20472;-77
2021/04/20 04:38:32;;;;;;;18.70;13.80;;;8.40;1.00;;;;;;5050814;28;20480;-78
2021/04/20 04:41:00;;;;;;;22.00;15.30;;;8.30;99.90;;;;;;5052720;28;20524;-77
2021/04/20 04:43:28;;;;;;;18.90;14.43;;;8.20;99.90;;;;;;5052162;28;20905;-77
2021/04/20 04:45:56;;;;;;;16.67;12.37;;;8.30;1.00;;;;;;5052720;28;20464;-78
2021/04/20 04:48:25;;;;;;;17.10;13.70;;;8.40;1.00;;;;;;5047647;28;20455;-78
2021/04/20 04:50:53;;;;;;;18.90;12.90;;;8.30;1.00;;;;;;5042225;28;20471;-78
2021/04/20 04:53:21;;;;;;;19.07;13.90;;;8.30;30.40;;;;;;5047818;28;21062;-80
2021/04/20 04:55:49;;;;;;;20.63;13.13;;;8.20;1.00;;;;;;5046391;28;20466;-79
2021/04/20 04:58:18;;;;;;;19.23;13.10;;;8.40;1.00;;;;;;5057751;28;20492;-77
2021/04/20 05:00:48;;;;;;;18.63;13.07;;;8.40;1.00;;;;;;5049803;28;20468;-80
2021/04/20 05:03:16;;;;;;;17.20;13.00;;;8.50;99.90;;;;;;5044231;28;20472;-77
2021/04/20 05:05:46;;;;;;;17.83;13.60;;;8.50;99.90;;;;;;5052382;28;20467;-82
2021/04/20 05:08:13;;;;;;;20.23;14.70;;;8.70;99.90;;;;;;5061471;28;20453;-78
2021/04/20 05:10:41;;;;;;;17.60;13.57;;;8.30;1.00;;;;;;5044432;28;20459;-78
2021/04/20 05:13:08;;;;;;;19.50;13.77;;;8.30;1.00;;;;;;5050345;28;20477;-79
2021/04/20 05:15:35;;;;;;;20.87;13.97;;;8.20;1.00;;;;;;5045345;28;20564;-78
2021/04/20 05:18:09;;;;;;;21.00;14.63;;;8.20;1.00;;;;;;5044950;28;20492;-80
2021/04/20 05:20:41;;;;;;;20.38;15.35;;;8.30;99.90;;;;;;5041357;28;20570;-78
2021/04/20 05:23:09;;;;;;;17.53;14.47;;;8.50;99.90;;;;;;5041584;28;20220;-79
2021/04/20 05:25:36;;;;;;;27.33;15.10;;;8.10;96.80;;;;;;5042064;28;20498;-78
2021/04/20 05:28:04;;;;;;;20.37;14.87;;;8.40;99.90;;;;;;5048049;28;20462;-80
2021/04/20 05:30:31;;;;;;;26.47;16.67;;;8.10;1.00;;;;;;5045444;28;21212;-80
2021/04/20 05:32:59;;;;;;;27.13;17.40;;;8.20;99.90;;;;;;5044764;28;20835;-81
2021/04/20 05:35:28;;;;;;;23.10;17.60;;;8.20;1.00;;;;;;5041141;28;20485;-79
2021/04/20 05:37:55;;;;;;;26.93;17.40;;;8.30;99.90;;;;;;5040465;28;20494;-79
2021/04/20 05:40:24;;;;;;;28.43;19.50;;;8.40;9.00;;;;;;5053825;28;20470;-79
2021/04/20 05:42:51;;;;;;;28.67;16.80;;;8.30;99.90;;;;;;5049115;28;20455;-80
2021/04/20 05:45:19;;;;;;;23.83;15.93;;;8.30;99.90;;;;;;5047813;28;20489;-79
2021/04/20 05:47:48;;;;;;;28.47;17.00;;;8.30;1.00;;;;;;5042902;28;20464;-79
2021/04/20 05:50:20;;;;;;;28.97;16.43;;;8.60;1.00;;;;;;5046143;28;20467;-80
2021/04/20 05:52:48;;;;;;;29.33;19.07;;;8.30;1.00;;;;;;5051864;28;20489;-81
2021/04/20 05:55:16;;;;;;;27.97;19.07;;;8.30;1.00;;;;;;5038391;28;20492;-79
2021/04/20 05:57:45;;;;;;;27.03;17.57;;;8.40;1.00;;;;;;5044082;28;20552;-80
2021/04/20 06:00:13;;;;;;;23.33;17.23;;;8.30;1.00;;;;;;5042363;28;20904;-80
2021/04/20 06:02:42;;;;;;;24.33;17.10;;;8.30;1.00;;;;;;5046125;28;20472;-80
2021/04/20 06:05:12;;;;;;;20.37;15.27;;;8.30;34.00;;;;;;5043913;28;20577;-78
2021/04/20 06:07:43;;;;;;;23.70;16.40;;;8.40;99.90;;;;;;5051457;28;20563;-79
2021/04/20 06:10:13;;;;;;;23.43;16.00;;;8.40;1.00;;;;;;5044711;28;20463;-80
2021/04/20 06:12:41;;;;;;;25.87;19.30;;;8.50;1.00;;;;;;5050098;28;20534;-79
2021/04/20 06:15:10;;;;;;;24.30;17.57;;;8.60;1.00;;;;;;5045866;28;20532;-81
2021/04/20 06:17:43;;;;;;;25.67;18.60;;;8.60;99.90;;;;;;5056213;28;20493;-79
2021/04/20 06:20:13;;;;;;;26.73;16.10;;;8.60;27.10;;;;;;5059516;28;20535;-79
2021/04/20 06:22:42;;;;;;;22.10;15.50;;;8.70;99.90;;;;;;5053780;28;20468;-78
2021/04/20 06:25:12;;;;;;;21.53;15.47;;;8.90;1.00;;;;;;5053790;28;20471;-79
2021/04/20 06:27:40;;;;;;;22.40;17.07;;;8.70;99.90;;;;;;5044951;28;20541;-78
2021/04/20 06:30:09;;;;;;;20.97;15.47;;;8.70;5.70;;;;;;5053141;28;20451;-81
2021/04/20 06:32:37;;;;;;;26.27;17.10;;;8.80;99.90;;;;;;5055424;28;20548;-82
2021/04/20 06:35:07;;;;;;;24.90;17.10;;;8.80;99.90;;;;;;5053008;28;20487;-80
2021/04/20 06:37:36;;;;;;;20.40;16.40;;;8.80;8.70;;;;;;5048457;28;20476;-79
2021/04/20 06:40:08;;;;;;;24.20;18.80;;;8.80;1.00;;;;;;5062240;28;20504;-81
2021/04/20 06:42:40;;;;;;;26.50;16.93;;;8.90;8.10;;;;;;5041300;28;20502;-80
2021/04/20 06:45:11;;;;;;;23.80;16.33;;;8.80;99.90;;;;;;5058425;28;21351;-80
2021/04/20 06:47:45;;;;;;;24.20;16.33;;;8.90;99.90;;;;;;5053513;28;20463;-80
2021/04/20 06:50:16;;;;;;;23.60;17.13;;;9.00;1.00;;;;;;5042651;28;20462;-80
2021/04/20 06:52:49;;;;;;;26.70;17.47;;;8.90;1.00;;;;;;5053707;28;20487;-79
2021/04/20 06:55:24;;;;;;;21.80;17.03;;;9.10;1.00;;;;;;5044666;28;20499;-83
2021/04/20 06:58:05;;;;;;;23.90;16.77;;;9.00;1.00;;;;;;5047220;28;20479;-80
2021/04/20 07:00:41;;;;;;;26.00;16.50;;;9.10;93.90;;;;;;5039653;28;20547;-80
2021/04/20 07:03:21;;;;;;;28.17;17.20;;;9.20;21.90;;;;;;5046503;28;20451;-82
2021/04/20 07:05:56;;;;;;;24.20;18.20;;;9.20;99.90;;;;;;5051256;28;20834;-80
2021/04/20 07:08:27;;;;;;;29.20;17.70;;;9.30;99.90;;;;;;5046134;28;20486;-81
2021/04/20 07:10:55;;;;;;;33.03;19.60;;;9.40;99.90;;;;;;5042511;28;20459;-81
2021/04/20 07:13:26;;;;;;;24.13;17.52;;;9.40;1.00;;;;;;5045906;28;20542;-80
2021/04/20 07:16:04;;;;;;;26.30;18.13;;;9.50;1.00;;;;;;5049812;28;20200;-80
2021/04/20 07:19:06;;;;;;;23.40;16.97;;;9.60;99.90;;;;;;5043546;28;20502;-80
2021/04/20 07:22:02;;;;;;;21.67;17.27;;;9.80;1.00;;;;;;5044283;28;20469;-81
2021/04/20 07:24:37;;;;;;;23.63;16.83;;;9.90;1.00;;;;;;5043805;28;21065;-81
2021/04/20 07:27:18;;;;;;;21.43;16.40;;;10.10;1.00;;;;;;5042263;28;20999;-81
2021/04/20 07:30:02;;;;;;;20.10;17.10;;;10.30;1.00;;;;;;5046295;28;20472;-81
2021/04/20 07:32:45;;;;;;;20.40;17.47;;;10.50;57.10;;;;;;5043697;28;20472;-80
2021/04/20 07:35:20;;;;;;;26.30;16.97;;;10.70;99.90;;;;;;5044410;28;20480;-80
2021/04/20 07:37:49;;;;;;;21.40;16.40;;;10.90;1.00;;;;;;5045764;28;20913;-81
2021/04/20 07:40:30;;;;;;;18.43;15.23;;;11.10;1.00;;;;;;5039080;28;21029;-80
2021/04/20 07:43:23;;;;;;;22.70;17.30;;;11.20;1.00;;;;;;5045137;28;20490;-81
2021/04/20 07:45:56;;;;;;;20.67;16.70;;;11.50;99.90;;;;;;5044181;28;20481;-81
2021/04/20 07:48:34;;;;;;;24.10;16.97;;;11.80;85.40;;;;;;5055949;28;20459;-80
2021/04/20 07:51:08;;;;;;;22.87;16.70;;;11.90;1.00;;;;;;5045876;28;20553;-80
2021/04/20 07:53:41;;;;;;;23.00;15.30;;;12.00;1.00;;;;;;5051622;28;20489;-82
2021/04/20 07:56:15;;;;;;;19.70;14.67;;;12.00;1.00;;;;;;5039043;28;20557;-81
2021/04/20 07:58:45;;;;;;;21.07;15.53;;;12.10;1.00;;;;;;5049796;28;20481;-80
2021/04/20 08:01:36;;;;;;;20.70;15.13;;;12.10;1.00;;;;;;5050640;28;20828;-80
2021/04/20 08:04:14;;;;;;;22.00;14.97;;;12.20;99.90;;;;;;5041257;28;20883;-82
2021/04/20 08:06:44;;;;;;;18.03;13.07;;;12.20;99.90;;;;;;5041123;28;20966;-80
2021/04/20 08:09:18;;;;;;;21.90;15.00;;;12.20;99.90;;;;;;5046361;28;20452;-81
2021/04/20 08:11:49;;;;;;;20.67;15.30;;;12.20;99.90;;;;;;5048207;28;21424;-81
2021/04/20 08:14:24;;;;;;;17.63;14.77;;;12.20;99.90;;;;;;5043487;28;20485;-80
2021/04/20 08:16:56;;;;;;;19.53;14.53;;;12.20;99.90;;;;;;5043665;28;20456;-81
2021/04/20 08:19:27;;;;;;;17.17;14.03;;;12.20;99.90;;;;;;5043376;28;20510;-80
2021/04/20 08:21:56;;;;;;;22.40;14.90;;;12.30;99.90;;;;;;5044241;28;20470;-81
2021/04/20 08:24:29;;;;;;;19.03;16.07;;;12.30;99.90;;;;;;5047840;28;20486;-81
2021/04/20 08:27:07;;;;;;;21.93;16.47;;;12.40;99.90;;;;;;5047027;28;20868;-82
2021/04/20 08:29:39;;;;;;;24.27;14.93;;;12.40;99.90;;;;;;5056984;28;20962;-80
2021/04/20 08:32:12;;;;;;;20.53;15.50;;;12.40;99.90;;;;;;5058345;28;20477;-81
2021/04/20 08:34:51;;;;;;;18.20;14.80;;;12.30;99.90;;;;;;5059305;28;20489;-81
2021/04/20 08:37:31;;;;;;;19.23;14.90;;;12.40;99.90;;;;;;5056786;28;20571;-78
2021/04/20 08:40:13;;;;;;;18.53;14.80;;;12.40;99.90;;;;;;5044312;28;20878;-81
2021/04/20 08:43:08;;;;;;;20.40;15.00;;;12.40;99.90;;;;;;5052316;28;21259;-82
2021/04/20 08:45:41;;;;;;;25.10;16.70;;;12.20;99.90;;;;;;5049775;28;21261;-83
2021/04/20 08:48:19;;;;;;;19.07;15.67;;;12.20;99.90;;;;;;5042868;28;20546;-80
2021/04/20 08:50:50;;;;;;;20.20;14.93;;;12.20;99.90;;;;;;5047584;28;20465;-80
2021/04/20 08:53:41;;;;;;;17.95;15.95;;;12.30;99.90;;;;;;5045287;28;20451;-80
2021/04/20 08:56:18;;;;;;;18.77;15.00;;;12.30;99.90;;;;;;5057617;28;20204;-76
2021/04/20 08:59:27;;;;;;;19.60;14.83;;;12.30;99.90;;;;;;5054855;28;20497;-81
2021/04/20 09:02:22;;;;;;;18.70;13.90;;;12.30;99.90;;;;;;5046824;28;20464;-80
2021/04/20 09:05:13;;;;;;;20.50;15.17;;;12.40;99.90;;;;;;5048472;28;20837;-80
2021/04/20 09:07:51;;;;;;;20.63;15.50;;;12.30;99.90;;;;;;5039836;28;20966;-81
2021/04/20 09:10:22;;;;;;;18.47;13.17;;;12.40;99.90;;;;;;5052010;28;20479;-80
2021/04/20 09:12:56;;;;;;;17.90;12.70;;;12.40;99.90;;;;;;5050746;28;20990;-81
2021/04/20 09:15:24;;;;;;;15.17;13.30;;;12.40;99.90;;;;;;5051031;28;20475;-78
2021/04/20 09:17:56;;;;;;;15.63;12.87;;;12.50;99.90;;;;;;5059687;28;20475;-79
2021/04/20 09:20:53;;;;;;;16.93;12.63;;;12.40;99.90;;;;;;5046033;28;22558;-81
2021/04/20 09:23:33;;;;;;;13.13;9.77;;;12.50;99.90;;;;;;5046648;28;20483;-81
2021/04/20 09:26:13;;;;;;;11.33;10.13;;;12.50;99.90;;;;;;5051715;28;20461;-82
2021/04/20 09:28:49;;;;;;;15.80;11.57;;;12.50;99.90;;;;;;5053708;28;20470;-80
2021/04/20 09:31:18;;;;;;;13.00;10.90;;;12.60;99.90;;;;;;5046352;28;20484;-80
2021/04/20 09:33:48;;;;;;;14.00;10.33;;;12.60;99.90;;;;;;5052372;28;20471;-82
2021/04/20 09:36:17;;;;;;;15.77;11.73;;;12.70;99.90;;;;;;5047724;28;21053;-83
2021/04/20 09:38:46;;;;;;;15.23;12.53;;;12.70;99.90;;;;;;5060906;28;20479;-81
2021/04/20 09:41:15;;;;;;;14.90;12.40;;;12.80;99.90;;;;;;5049812;28;20472;-81
2021/04/20 09:43:56;;;;;;;16.33;11.27;;;12.90;99.90;;;;;;5047886;28;20546;-81
2021/04/20 09:46:32;;;;;;;12.40;9.60;;;12.90;99.90;;;;;;5051655;28;20550;-81
2021/04/20 09:49:08;;;;;;;12.37;10.10;;;12.90;99.90;;;;;;5046882;28;20458;-80
2021/04/20 09:51:49;;;;;;;13.52;10.90;;;13.10;99.90;;;;;;5053211;28;20759;-81
2021/04/20 09:54:21;;;;;;;13.83;11.10;;;13.20;99.90;;;;;;5045768;28;20220;-80
2021/04/20 09:56:53;;;;;;;14.70;11.43;;;13.30;99.90;;;;;;5051555;28;20591;-80
2021/04/20 09:59:39;;;;;;;11.23;10.00;;;13.30;99.90;;;;;;5044286;28;20501;-80
2021/04/20 10:02:29;;;;;;;11.50;9.30;;;13.40;99.90;;;;;;5040289;28;22374;-81
2021/04/20 10:05:08;;;;;;;11.20;8.47;;;13.50;99.90;;;;;;5045124;28;20494;-82
2021/04/20 10:07:51;;;;;;;10.23;8.90;;;13.60;99.90;;;;;;5038918;28;20787;-80
2021/04/20 10:10:30;;;;;;;9.00;7.90;;;13.60;99.90;;;;;;5054357;28;21017;-80
2021/04/20 10:13:12;;;;;;;10.13;7.63;;;13.60;99.90;;;;;;5056861;28;20463;-81
2021/04/20 10:15:46;;;;;;;11.65;8.90;;;13.50;99.90;;;;;;5041155;28;20587;-80
2021/04/20 10:18:20;;;;;;;8.97;7.97;;;13.60;99.90;;;;;;5051799;28;20215;-80
2021/04/20 10:20:56;;;;;;;11.60;8.47;;;13.70;99.90;;;;;;5044064;28;20461;-79
2021/04/20 10:23:48;;;;;;;8.23;7.43;;;13.80;99.90;;;;;;5047799;28;20471;-80
2021/04/20 10:26:22;;;;;;;8.87;7.97;;;13.70;99.90;;;;;;5046567;28;21038;-81
2021/04/20 10:28:57;;;;;;;8.30;7.40;;;13.80;99.90;;;;;;5043837;28;20451;-81
2021/04/20 10:31:30;;;;;;;9.90;8.13;;;13.90;99.90;;;;;;5045363;28;20472;-81
2021/04/20 10:33:58;;;;;;;9.43;8.53;;;13.90;99.90;;;;;;5042363;28;20491;-82
2021/04/20 10:36:27;;;;;;;9.27;8.32;;;13.90;99.90;;;;;;5043080;28;20975;-81
2021/04/20 10:39:00;;;;;;;12.57;8.60;;;13.90;99.90;;;;;;5050064;28;20230;-81
2021/04/20 10:41:30;;;;;;;9.77;7.73;;;13.90;99.90;;;;;;5051833;28;20488;-80
2021/04/20 10:43:58;;;;;;;10.63;7.67;;;13.90;99.90;;;;;;5049330;28;20480;-80
2021/04/20 10:46:28;;;;;;;11.10;8.93;;;13.90;99.90;;;;;;5046766;28;20450;-79
2021/04/20 10:48:58;;;;;;;9.17;8.17;;;13.90;99.90;;;;;;5045206;28;21279;-80
2021/04/20 10:51:31;;;;;;;7.50;6.77;;;13.90;99.90;;;;;;5042801;28;20507;-81
2021/04/20 10:54:01;;;;;;;8.73;6.90;;;13.90;99.90;;;;;;5044897;28;20505;-82
2021/04/20 10:56:30;;;;;;;7.53;5.87;;;13.90;99.90;;;;;;5050319;28;20455;-80
2021/04/20 10:59:01;;;;;;;6.90;6.20;;;13.90;99.90;;;;;;5052350;28;20475;-81
2021/04/20 11:01:29;;;;;;;7.53;6.37;;;13.90;99.90;;;;;;5040867;28;20457;-82
2021/04/20 11:03:59;;;;;;;7.10;5.87;;;14.00;99.90;;;;;;5056773;28;21059;-82
2021/04/20 11:07:03;;;;;;;7.87;6.20;;;14.10;99.90;;;;;;5047312;28;20462;-80
2021/04/20 11:09:32;;;;;;;7.50;5.87;;;14.20;99.90;;;;;;5058991;28;20564;-82
2021/04/20 11:11:59;;;;;;;7.13;5.70;;;14.20;99.90;;;;;;5050814;28;20462;-81
2021/04/20 11:14:40;;;;;;;7.77;6.97;;;14.30;99.90;;;;;;5042682;28;20490;-81
2021/04/20 11:17:13;;;;;;;8.53;6.83;;;14.50;99.90;;;;;;5037307;28;20457;-82
2021/04/20 11:19:46;;;;;;;6.87;6.13;;;14.50;99.90;;;;;;5041457;28;20489;-81
2021/04/20 11:22:16;;;;;;;7.40;6.70;;;14.70;99.90;;;;;;5044900;28;20514;-80
2021/04/20 11:24:51;;;;;;;6.70;5.60;;;14.70;99.90;;;;;;5042025;28;20522;-79
2021/04/20 11:27:22;;;;;;;6.83;6.13;;;14.70;99.90;;;;;;5045569;28;20484;-81
2021/04/20 11:29:55;;;;;;;7.33;6.63;;;14.80;99.90;;;;;;5045423;28;20972;-82
2021/04/20 11:32:25;;;;;;;12.50;9.07;;;14.80;99.90;;;;;;5045004;28;20460;-81
2021/04/20 11:34:57;;;;;;;10.03;8.57;;;14.70;99.90;;;;;;5056510;28;20487;-82
2021/04/20 11:37:25;;;;;;;10.50;8.53;;;14.80;99.90;;;;;;5051063;28;20464;-82
2021/04/20 11:40:02;;;;;;;11.80;9.80;;;14.80;99.90;;;;;;5052143;28;20450;-80
2021/04/20 11:42:36;;;;;;;11.53;9.60;;;14.90;99.90;;;;;;5064428;28;20469;-80
2021/04/20 11:45:12;;;;;;;9.57;8.60;;;14.90;99.90;;;;;;5050148;28;20486;-82
2021/04/20 11:47:51;;;;;;;9.20;8.03;;;15.00;99.90;;;;;;5050750;28;20483;-81
2021/04/20 11:50:20;;;;;;;8.13;7.33;;;15.00;99.90;;;;;;5051089;28;20450;-81
2021/04/20 11:52:55;;;;;;;9.40;7.70;;;15.10;99.90;;;;;;5047969;28;20958;-79
2021/04/20 11:55:29;;;;;;;4.57;4.27;;;15.10;99.90;;;;;;5054704;28;20227;-82
2021/04/20 11:58:02;;;;;;;5.30;4.63;;;15.10;99.90;;;;;;5051497;28;20455;-80
2021/04/20 12:00:31;;;;;;;6.40;5.80;;;15.10;99.90;;;;;;5051997;28;20454;-76
2021/04/20 12:03:08;;;;;;;8.90;7.10;;;15.30;99.90;;;;;;5047639;28;20218;-75
2021/04/20 12:05:36;;;;;;;9.40;8.20;;;15.40;99.90;;;;;;5049504;28;20565;-76
2021/04/20 12:08:05;;;;;;;11.17;7.80;;;15.40;99.90;;;;;;5051627;28;20457;-79
2021/04/20 12:10:35;;;;;;;9.30;7.90;;;15.40;99.90;;;;;;5052730;28;20459;-77
2021/04/20 12:13:03;;;;;;;10.30;8.00;;;15.30;99.90;;;;;;5049174;28;20758;-74
2021/04/20 12:15:31;;;;;;;10.10;8.10;;;15.40;99.90;;;;;;5048517;28;20483;-76
2021/04/20 12:18:07;;;;;;;8.10;5.90;;;15.40;99.90;;;;;;5052995;28;20485;-83
2021/04/20 12:20:35;;;;;;;8.53;7.27;;;15.30;99.90;;;;;;5043762;28;20451;-83
2021/04/20 12:23:03;;;;;;;9.23;7.78;;;15.30;99.90;;;;;;5049117;28;20454;-81
2021/04/20 12:25:31;;;;;;;9.60;6.73;;;15.30;99.90;;;;;;5053660;28;20228;-82
2021/04/20 12:28:02;;;;;;;9.63;6.67;;;15.20;99.90;;;;;;5053354;28;20970;-80
2021/04/20 12:30:32;;;;;;;8.83;7.53;;;15.10;99.90;;;;;;5050178;28;20518;-81
2021/04/20 12:33:00;;;;;;;10.40;6.77;;;15.10;99.90;;;;;;5052295;28;20803;-81
2021/04/20 12:35:30;;;;;;;7.13;6.40;;;15.20;99.90;;;;;;5053025;28;20981;-81
2021/04/20 12:37:59;;;;;;;7.50;5.90;;;15.20;99.90;;;;;;5049601;28;20462;-81
2021/04/20 12:40:27;;;;;;;8.33;6.30;;;15.20;99.90;;;;;;5050178;28;20954;-80
2021/04/20 12:42:58;;;;;;;7.47;6.50;;;15.20;99.90;;;;;;5055055;28;21197;-81
2021/04/20 12:45:32;;;;;;;8.33;6.60;;;15.20;99.90;;;;;;5054199;28;20921;-80
2021/04/20 12:47:59;;;;;;;7.50;6.70;;;15.20;99.90;;;;;;5053015;28;20447;-81
2021/04/20 12:50:31;;;;;;;6.70;5.57;;;15.20;99.90;;;;;;5068115;28;23214;-80
2021/04/20 12:53:02;;;;;;;6.90;6.00;;;15.20;99.90;;;;;;5048016;28;20829;-80
2021/04/20 12:55:31;;;;;;;7.07;5.57;;;15.20;99.90;;;;;;5051060;28;20478;-81
2021/04/20 12:58:06;;;;;;;6.63;6.03;;;15.20;99.90;;;;;;5051721;28;20639;-82
2021/04/20 13:00:36;;;;;;;6.53;5.93;;;15.20;99.90;;;;;;5050659;28;20471;-81